Time;durP1;ratioP1;P1;durP2;ratioP2;P2;SDS_P1;SDS_P2;PMS_P1;PMS_P2;Temp;Humidity;BMP_temperature;BMP_pressure;BME280_temperature;BME280_humidity;BME280_pressure;Samples;Min_cycle;Max_cycle;Signal;HPM_P1;HPM_P2
2022/09/23 00:00:12;;;;;;;4.50;2.50;;;8.30;99.90;;;;;;5051400;28;20229;-58
2022/09/23 00:02:39;;;;;;;3.67;2.77;;;8.40;99.90;;;;;;5052485;28;20282;-57
2022/09/23 00:05:07;;;;;;;4.03;2.80;;;8.40;99.90;;;;;;5052344;28;20205;-57
2022/09/23 00:07:34;;;;;;;4.17;2.73;;;8.30;99.90;;;;;;5052316;28;20578;-57
2022/09/23 00:10:02;;;;;;;2.87;2.50;;;8.40;99.90;;;;;;5051288;28;20785;-56
2022/09/23 00:12:29;;;;;;;4.93;2.73;;;8.30;99.90;;;;;;5052117;28;20621;-57
2022/09/23 00:14:55;;;;;;;3.07;2.77;;;8.40;99.90;;;;;;5051961;28;20292;-59
2022/09/23 00:17:22;;;;;;;3.97;3.10;;;8.40;99.90;;;;;;5052232;28;20268;-57
2022/09/23 00:19:49;;;;;;;3.17;2.70;;;8.40;99.90;;;;;;5051283;28;20292;-57
2022/09/23 00:22:16;;;;;;;3.80;2.83;;;8.40;99.90;;;;;;5052078;28;20255;-58
2022/09/23 00:24:43;;;;;;;3.50;2.63;;;8.40;99.90;;;;;;5052021;28;20210;-55
2022/09/23 00:27:11;;;;;;;3.27;2.60;;;8.40;99.90;;;;;;5052036;28;20215;-57
2022/09/23 00:29:37;;;;;;;4.70;2.80;;;8.30;99.90;;;;;;5051400;28;20236;-55
2022/09/23 00:32:04;;;;;;;3.17;2.40;;;8.30;99.90;;;;;;5052220;28;20209;-56
2022/09/23 00:34:31;;;;;;;4.27;2.57;;;8.30;99.90;;;;;;5052283;28;20236;-56
2022/09/23 00:36:58;;;;;;;4.43;2.57;;;8.30;99.90;;;;;;5052255;28;20263;-57
2022/09/23 00:39:25;;;;;;;4.10;2.40;;;8.30;99.90;;;;;;5051414;28;20226;-55
2022/09/23 00:41:52;;;;;;;4.07;2.80;;;8.30;99.90;;;;;;5051973;28;20319;-55
2022/09/23 00:44:44;;;;;;;4.40;2.87;;;8.20;99.90;;;;;;5052057;28;20210;-55
2022/09/23 00:47:18;;;;;;;5.73;2.73;;;8.20;99.90;;;;;;5051874;28;20217;-56
2022/09/23 00:49:46;;;;;;;3.10;2.70;;;8.20;99.90;;;;;;5050997;28;20209;-56
2022/09/23 00:52:16;;;;;;;2.93;2.63;;;8.20;99.90;;;;;;5051619;28;20202;-57
2022/09/23 00:54:45;;;;;;;3.40;2.33;;;8.20;99.90;;;;;;5051867;28;20209;-57
2022/09/23 00:57:14;;;;;;;4.60;2.57;;;8.20;99.90;;;;;;5051394;28;20669;-57
2022/09/23 00:59:41;;;;;;;3.43;2.30;;;8.20;99.90;;;;;;5050903;28;20209;-56
2022/09/23 01:02:13;;;;;;;3.00;2.43;;;8.10;99.90;;;;;;5051573;28;20288;-56
2022/09/23 01:04:40;;;;;;;2.80;2.60;;;8.20;99.90;;;;;;5051605;28;20296;-59
2022/09/23 01:07:07;;;;;;;3.43;2.50;;;8.10;99.90;;;;;;5051540;28;20554;-59
2022/09/23 01:09:34;;;;;;;6.13;2.63;;;8.10;99.90;;;;;;5050577;28;20210;-59
2022/09/23 01:12:14;;;;;;;3.30;2.60;;;8.10;99.90;;;;;;5052434;28;20209;-59
2022/09/23 01:14:48;;;;;;;3.20;2.60;;;8.00;99.90;;;;;;5055379;28;20858;-59
2022/09/23 01:17:26;;;;;;;2.83;2.53;;;8.00;99.90;;;;;;5055252;28;20209;-59
2022/09/23 01:20:28;;;;;;;3.53;2.37;;;8.00;99.90;;;;;;5054615;28;20264;-59
2022/09/23 01:23:06;;;;;;;3.93;2.40;;;8.00;99.90;;;;;;5055171;28;20688;-59
2022/09/23 01:25:49;;;;;;;4.20;2.40;;;8.00;99.90;;;;;;5055209;28;20248;-58
2022/09/23 01:28:34;;;;;;;3.20;2.30;;;8.00;99.90;;;;;;5055204;28;20235;-59
2022/09/23 01:31:06;;;;;;;3.07;2.67;;;8.00;99.90;;;;;;5054539;28;20233;-59
2022/09/23 01:33:39;;;;;;;3.00;2.70;;;8.00;99.90;;;;;;5055025;28;20263;-59
2022/09/23 01:36:18;;;;;;;2.63;2.43;;;8.00;99.90;;;;;;5055148;28;20300;-59
2022/09/23 01:38:57;;;;;;;3.33;2.80;;;8.00;99.90;;;;;;5055069;28;20315;-59
2022/09/23 01:41:39;;;;;;;2.70;2.30;;;8.00;99.90;;;;;;5054221;28;20275;-59
2022/09/23 01:44:11;;;;;;;3.43;2.53;;;8.00;99.90;;;;;;5054829;28;20209;-59
2022/09/23 01:46:47;;;;;;;2.73;2.53;;;8.00;99.90;;;;;;5054656;28;20682;-59
2022/09/23 01:49:19;;;;;;;3.43;2.40;;;8.00;99.90;;;;;;5054857;28;20692;-60
2022/09/23 01:51:49;;;;;;;3.10;2.30;;;7.90;99.90;;;;;;5054727;28;20305;-59
2022/09/23 01:54:22;;;;;;;3.37;2.77;;;7.90;99.90;;;;;;5054682;28;20209;-59
2022/09/23 01:56:54;;;;;;;4.10;2.37;;;7.80;99.90;;;;;;5054587;28;20251;-59
2022/09/23 01:59:25;;;;;;;3.43;2.80;;;7.80;99.90;;;;;;5054159;28;20229;-59
2022/09/23 02:01:59;;;;;;;3.83;2.80;;;7.80;99.90;;;;;;5054693;28;20679;-59
2022/09/23 02:04:30;;;;;;;3.77;2.70;;;7.90;99.90;;;;;;5054614;28;20233;-59
2022/09/23 02:07:02;;;;;;;6.43;3.37;;;7.90;99.90;;;;;;5054498;28;20233;-59
2022/09/23 02:09:36;;;;;;;7.40;3.80;;;7.90;99.90;;;;;;5053813;28;20202;-59
2022/09/23 02:12:11;;;;;;;9.17;3.93;;;7.90;99.90;;;;;;5054413;28;20219;-59
2022/09/23 02:14:45;;;;;;;4.90;2.80;;;7.90;99.90;;;;;;5054488;28;20213;-59
2022/09/23 02:17:17;;;;;;;4.27;2.70;;;7.90;99.90;;;;;;5054481;28;20575;-59
2022/09/23 02:19:48;;;;;;;5.57;2.30;;;8.00;99.90;;;;;;5053420;28;20226;-59
2022/09/23 02:22:19;;;;;;;4.67;2.70;;;8.00;99.90;;;;;;5054365;28;20209;-59
2022/09/23 02:24:46;;;;;;;2.70;2.40;;;8.00;99.90;;;;;;5053037;28;20205;-59
2022/09/23 02:27:20;;;;;;;2.60;2.40;;;7.90;99.90;;;;;;5054161;28;20205;-59
2022/09/23 02:29:53;;;;;;;5.13;3.20;;;7.90;99.90;;;;;;5053428;28;20202;-59
2022/09/23 02:32:28;;;;;;;4.23;3.07;;;7.90;99.90;;;;;;5053847;28;20259;-59
2022/09/23 02:35:01;;;;;;;4.17;3.23;;;7.90;99.90;;;;;;5054066;28;20205;-59
2022/09/23 02:37:34;;;;;;;3.53;3.00;;;7.80;99.90;;;;;;5053749;28;20670;-59
2022/09/23 02:40:11;;;;;;;2.80;2.60;;;7.80;99.90;;;;;;5053423;28;20321;-59
2022/09/23 02:42:44;;;;;;;3.20;2.70;;;7.70;99.90;;;;;;5053978;28;20205;-59
2022/09/23 02:45:11;;;;;;;3.07;2.40;;;7.70;99.90;;;;;;5053941;28;20206;-59
2022/09/23 02:47:42;;;;;;;2.90;2.60;;;7.70;99.90;;;;;;5053629;28;20210;-59
2022/09/23 02:50:09;;;;;;;3.50;3.07;;;7.70;99.90;;;;;;5053167;28;20221;-59
2022/09/23 02:52:37;;;;;;;3.47;2.60;;;7.70;99.90;;;;;;5053754;28;20209;-59
2022/09/23 02:55:04;;;;;;;4.67;3.70;;;7.70;99.90;;;;;;5053730;28;20201;-59
2022/09/23 02:57:31;;;;;;;3.93;3.20;;;7.70;99.90;;;;;;5053351;28;20225;-58
2022/09/23 02:59:58;;;;;;;4.27;2.53;;;7.70;99.90;;;;;;5052836;28;20233;-58
2022/09/23 03:02:50;;;;;;;3.87;2.80;;;7.60;99.90;;;;;;5053535;28;20216;-59
2022/09/23 03:05:22;;;;;;;4.07;2.70;;;7.60;99.90;;;;;;5053392;28;20296;-59
2022/09/23 03:08:05;;;;;;;4.00;2.33;;;7.60;99.90;;;;;;5053185;28;20301;-59
2022/09/23 03:10:40;;;;;;;3.00;2.50;;;7.60;99.90;;;;;;5052466;28;20720;-59
2022/09/23 03:13:16;;;;;;;2.70;2.37;;;7.50;99.90;;;;;;5053401;28;20216;-59
2022/09/23 03:15:51;;;;;;;6.23;4.40;;;7.50;99.90;;;;;;5053411;28;20292;-59
2022/09/23 03:18:22;;;;;;;7.57;5.00;;;7.60;99.90;;;;;;5052931;28;20233;-59
2022/09/23 03:20:51;;;;;;;15.20;10.20;;;7.60;99.90;;;;;;5052339;28;20244;-59
2022/09/23 03:23:24;;;;;;;5.03;4.07;;;7.60;99.90;;;;;;5053117;28;20255;-58
2022/09/23 03:25:53;;;;;;;7.87;5.33;;;7.70;99.90;;;;;;5053018;28;20205;-58
2022/09/23 03:28:21;;;;;;;12.90;7.03;;;7.70;99.90;;;;;;5053024;28;20292;-58
2022/09/23 03:30:49;;;;;;;6.00;3.20;;;7.60;99.90;;;;;;5051968;28;20233;-58
2022/09/23 03:33:22;;;;;;;9.40;5.90;;;7.60;99.90;;;;;;5052900;28;20206;-58
2022/09/23 03:38:41;;;;;;;5.87;4.13;;;7.60;99.90;;;;;;5052612;28;20324;-59
2022/09/23 03:41:11;;;;;;;5.17;3.00;;;7.50;99.90;;;;;;5052054;28;20321;-59
2022/09/23 03:43:38;;;;;;;6.70;4.30;;;7.50;99.90;;;;;;5052836;28;20665;-59
2022/09/23 03:46:07;;;;;;;7.60;4.50;;;7.40;99.90;;;;;;5053189;28;20244;-59
2022/09/23 03:48:35;;;;;;;6.17;4.20;;;7.40;99.90;;;;;;5053222;28;20209;-59
2022/09/23 03:51:17;;;;;;;4.67;2.90;;;7.30;99.90;;;;;;5052417;28;20283;-58
2022/09/23 03:53:44;;;;;;;3.50;3.20;;;7.30;99.90;;;;;;5052735;28;20213;-59
2022/09/23 03:56:11;;;;;;;3.07;2.73;;;7.20;99.90;;;;;;5053174;28;20206;-58
2022/09/23 03:58:37;;;;;;;4.10;2.77;;;7.20;99.90;;;;;;5053016;28;20249;-59
2022/09/23 04:01:04;;;;;;;8.97;3.60;;;7.20;99.90;;;;;;5051749;28;20225;-59
2022/09/23 04:03:31;;;;;;;4.83;3.60;;;7.10;99.90;;;;;;5052332;28;20209;-58
2022/09/23 04:05:59;;;;;;;5.57;3.60;;;7.20;99.90;;;;;;5052227;28;20209;-59
2022/09/23 04:08:26;;;;;;;3.67;3.23;;;7.20;99.90;;;;;;5052405;28;20205;-58
2022/09/23 04:10:53;;;;;;;3.20;2.90;;;7.20;99.90;;;;;;5051703;28;20328;-59
2022/09/23 04:13:19;;;;;;;3.07;2.77;;;7.20;99.90;;;;;;5052210;28;20279;-58
2022/09/23 04:15:49;;;;;;;4.43;3.43;;;7.20;99.90;;;;;;5052281;28;20665;-59
2022/09/23 04:18:16;;;;;;;4.63;3.43;;;7.10;99.90;;;;;;5052072;28;20259;-59
2022/09/23 04:20:42;;;;;;;3.30;3.00;;;7.10;99.90;;;;;;5051476;28;20655;-59
2022/09/23 04:23:10;;;;;;;3.53;3.23;;;7.20;99.90;;;;;;5052151;28;20209;-59
2022/09/23 04:25:44;;;;;;;3.20;2.80;;;7.30;99.90;;;;;;5052071;28;20205;-59
2022/09/23 04:28:11;;;;;;;6.67;3.83;;;7.40;99.90;;;;;;5052011;28;20206;-59
2022/09/23 04:30:40;;;;;;;5.27;3.30;;;7.40;99.90;;;;;;5051192;28;20225;-58
2022/09/23 04:33:07;;;;;;;6.63;4.00;;;7.30;99.90;;;;;;5051717;28;20209;-59
2022/09/23 04:35:33;;;;;;;4.80;3.70;;;7.30;99.90;;;;;;5052028;28;20213;-59
2022/09/23 04:38:00;;;;;;;7.53;3.93;;;7.30;99.90;;;;;;5051932;28;20209;-59
2022/09/23 04:40:28;;;;;;;3.67;3.20;;;7.20;99.90;;;;;;5050968;28;20251;-59
2022/09/23 04:42:55;;;;;;;4.27;3.00;;;7.20;99.90;;;;;;5051675;28;20232;-59
2022/09/23 04:45:21;;;;;;;4.27;3.83;;;7.20;99.90;;;;;;5051711;28;20217;-59
2022/09/23 04:47:48;;;;;;;5.23;3.40;;;7.10;99.90;;;;;;5053852;28;20731;-59
2022/09/23 04:50:15;;;;;;;6.27;3.43;;;7.10;99.90;;;;;;5055150;28;20228;-58
2022/09/23 04:52:42;;;;;;;4.00;3.50;;;7.10;99.90;;;;;;5055692;28;20216;-58
2022/09/23 04:55:09;;;;;;;5.67;3.67;;;7.00;99.90;;;;;;5055849;28;20206;-58
2022/09/23 04:57:37;;;;;;;7.50;3.73;;;7.00;99.90;;;;;;5055977;28;20205;-58
2022/09/23 05:00:05;;;;;;;4.20;3.50;;;7.00;99.90;;;;;;5055030;28;20291;-58
2022/09/23 05:02:34;;;;;;;7.47;4.03;;;7.00;99.90;;;;;;5055612;28;20210;-58
2022/09/23 05:05:01;;;;;;;4.83;3.77;;;7.00;99.90;;;;;;5055775;28;20205;-58
2022/09/23 05:07:28;;;;;;;7.57;3.60;;;7.00;99.90;;;;;;5055342;28;20214;-59
2022/09/23 05:09:54;;;;;;;6.33;3.80;;;6.90;99.90;;;;;;5054672;28;20720;-60
2022/09/23 05:12:21;;;;;;;8.90;4.07;;;6.90;99.90;;;;;;5055358;28;20259;-58
2022/09/23 05:14:49;;;;;;;4.57;3.60;;;6.90;99.90;;;;;;5055452;28;20205;-59
2022/09/23 05:17:16;;;;;;;4.83;3.97;;;7.00;99.90;;;;;;5055365;28;20209;-61
2022/09/23 05:19:42;;;;;;;5.63;4.00;;;7.00;99.90;;;;;;5054362;28;20222;-63
2022/09/23 05:22:09;;;;;;;6.87;4.43;;;7.00;99.90;;;;;;5032839;22;1095824;-59
2022/09/23 05:24:36;;;;;;;4.03;3.40;;;7.10;99.90;;;;;;5051129;28;20197;-59
2022/09/23 05:27:06;;;;;;;4.40;3.53;;;7.10;99.90;;;;;;5057299;28;20631;-59
2022/09/23 05:29:33;;;;;;;6.50;3.50;;;7.20;99.90;;;;;;5056567;28;20202;-60
2022/09/23 05:32:01;;;;;;;7.03;3.30;;;7.30;99.90;;;;;;5055981;28;20236;-58
2022/09/23 05:34:28;;;;;;;4.17;3.23;;;7.30;99.90;;;;;;5056778;28;20206;-59
2022/09/23 05:36:57;;;;;;;4.17;3.07;;;7.40;99.90;;;;;;5056272;28;20209;-58
2022/09/23 05:39:23;;;;;;;4.97;3.20;;;7.50;99.90;;;;;;5056042;28;20225;-58
2022/09/23 05:41:52;;;;;;;5.53;3.70;;;7.60;99.90;;;;;;5055573;28;20229;-59
2022/09/23 05:44:19;;;;;;;6.37;3.30;;;7.70;99.90;;;;;;5056205;28;20324;-60
2022/09/23 05:46:45;;;;;;;6.93;3.93;;;7.80;99.90;;;;;;5055665;28;20673;-59
2022/09/23 05:49:14;;;;;;;8.93;6.10;;;7.80;99.90;;;;;;5055620;28;20212;-60
2022/09/23 05:51:40;;;;;;;10.90;3.97;;;8.00;99.90;;;;;;5054732;28;20233;-60
2022/09/23 05:54:07;;;;;;;5.40;4.20;;;8.10;99.90;;;;;;5055477;28;20692;-60
2022/09/23 05:56:36;;;;;;;7.53;3.97;;;8.20;99.90;;;;;;5055409;28;20680;-59
2022/09/23 05:59:03;;;;;;;7.30;4.23;;;8.30;99.90;;;;;;5055206;28;20292;-59
2022/09/23 06:01:32;;;;;;;5.40;3.80;;;8.50;99.90;;;;;;5054891;28;20230;-60
2022/09/23 06:04:00;;;;;;;5.00;4.23;;;8.60;99.90;;;;;;5055367;28;20248;-59
2022/09/23 06:06:30;;;;;;;5.10;4.50;;;8.70;99.90;;;;;;5055037;28;20206;-59
2022/09/23 06:08:57;;;;;;;6.13;4.10;;;8.90;99.90;;;;;;5054723;28;20208;-59
2022/09/23 06:11:24;;;;;;;5.60;4.00;;;9.00;99.90;;;;;;5054653;28;20595;-59
2022/09/23 06:13:55;;;;;;;7.87;4.20;;;9.30;99.90;;;;;;5054932;28;20665;-60
2022/09/23 06:16:22;;;;;;;14.40;3.83;;;9.80;99.90;;;;;;5054979;28;20237;-59
2022/09/23 06:18:48;;;;;;;6.13;3.80;;;10.80;99.90;;;;;;5055013;28;20221;-60
2022/09/23 06:21:17;;;;;;;6.60;3.30;;;12.20;99.90;;;;;;5053984;28;20229;-60
2022/09/23 06:23:46;;;;;;;15.80;3.90;;;13.60;99.90;;;;;;5055035;28;20213;-61
2022/09/23 06:26:14;;;;;;;12.43;3.40;;;14.80;99.90;;;;;;5054812;28;20210;-61
2022/09/23 06:28:43;;;;;;;15.43;3.50;;;15.90;99.90;;;;;;5054611;28;20205;-62
2022/09/23 06:31:12;;;;;;;14.40;3.67;;;17.00;99.90;;;;;;5054271;28;20229;-62
2022/09/23 06:33:39;;;;;;;10.02;3.22;;;17.80;99.90;;;;;;5055191;28;20565;-61
2022/09/23 06:36:07;;;;;;;5.07;2.90;;;18.60;99.90;;;;;;5054717;28;20571;-61
2022/09/23 06:38:35;;;;;;;8.38;2.80;;;19.20;99.90;;;;;;5055024;28;20210;-61
2022/09/23 06:41:03;;;;;;;6.70;2.88;;;19.80;99.90;;;;;;5054351;28;20272;-61
2022/09/23 06:43:30;;;;;;;4.40;2.47;;;20.50;98.70;;;;;;5054703;28;20206;-61
2022/09/23 06:45:58;;;;;;;3.67;2.20;;;21.20;97.50;;;;;;5054707;28;20205;-60
2022/09/23 06:48:26;;;;;;;5.28;2.05;;;22.00;94.70;;;;;;5054505;28;20209;-60
2022/09/23 06:50:54;;;;;;;4.47;2.10;;;22.90;91.60;;;;;;5054223;28;20229;-60
2022/09/23 06:53:22;;;;;;;10.95;7.55;;;23.50;88.90;;;;;;5055056;28;20554;-60
2022/09/23 06:55:49;;;;;;;2.85;2.10;;;24.10;85.50;;;;;;5055164;28;20523;-61
2022/09/23 06:58:17;;;;;;;3.65;1.88;;;25.00;82.60;;;;;;5054767;28;20210;-61
2022/09/23 07:00:44;;;;;;;2.67;1.95;;;25.70;78.80;;;;;;5053758;28;20588;-60
2022/09/23 07:03:11;;;;;;;2.95;2.30;;;26.30;74.70;;;;;;5054403;28;20237;-61
2022/09/23 07:05:38;;;;;;;3.85;2.17;;;26.50;70.80;;;;;;5055091;28;20201;-60
2022/09/23 07:08:07;;;;;;;2.60;2.00;;;26.30;70.80;;;;;;5054908;28;20546;-61
2022/09/23 07:10:34;;;;;;;3.47;2.60;;;26.30;70.70;;;;;;5053272;28;20221;-61
2022/09/23 07:13:01;;;;;;;3.97;2.65;;;26.30;68.10;;;;;;5055401;28;20202;-61
2022/09/23 07:15:30;;;;;;;4.32;2.47;;;26.30;67.30;;;;;;5055784;28;20228;-60
2022/09/23 07:17:57;;;;;;;5.68;2.63;;;26.00;67.30;;;;;;5055160;28;20293;-61
2022/09/23 07:20:24;;;;;;;3.92;2.20;;;25.60;68.00;;;;;;5055035;28;20229;-60
2022/09/23 07:22:51;;;;;;;3.47;2.33;;;25.30;68.00;;;;;;5055480;28;20220;-61
2022/09/23 07:25:18;;;;;;;5.88;4.47;;;25.10;67.20;;;;;;5055064;28;20206;-61
2022/09/23 07:27:46;;;;;;;3.95;2.30;;;25.10;67.20;;;;;;5054358;28;20220;-61
2022/09/23 07:30:13;;;;;;;4.20;2.10;;;25.20;66.80;;;;;;5053492;28;20201;-61
2022/09/23 07:32:41;;;;;;;3.78;2.22;;;25.40;66.90;;;;;;5054547;28;20214;-61
2022/09/23 07:35:09;;;;;;;2.17;1.90;;;25.60;65.80;;;;;;5053979;28;20213;-61
2022/09/23 07:37:36;;;;;;;4.45;2.00;;;25.80;65.50;;;;;;5053558;28;20641;-61
2022/09/23 07:40:03;;;;;;;2.22;1.63;;;26.30;64.40;;;;;;5053399;28;20257;-61
2022/09/23 07:42:30;;;;;;;4.22;3.03;;;26.50;63.30;;;;;;5053815;28;20653;-60
2022/09/23 07:44:57;;;;;;;5.53;4.32;;;26.50;62.40;;;;;;5053134;28;20208;-61
2022/09/23 07:47:24;;;;;;;2.90;2.60;;;26.20;63.00;;;;;;5053314;28;20720;-61
2022/09/23 07:49:53;;;;;;;4.38;1.88;;;25.60;64.20;;;;;;5053760;28;20208;-60
2022/09/23 07:52:20;;;;;;;4.85;2.00;;;24.80;65.30;;;;;;5053656;28;20237;-61
2022/09/23 07:54:47;;;;;;;3.83;2.00;;;24.10;66.90;;;;;;5053141;28;20237;-60
2022/09/23 07:57:14;;;;;;;3.35;1.90;;;23.40;68.60;;;;;;5053325;28;20205;-61
2022/09/23 07:59:42;;;;;;;2.72;2.08;;;22.90;69.50;;;;;;5053394;28;20677;-60
2022/09/23 08:02:09;;;;;;;3.95;1.73;;;22.20;71.20;;;;;;5052950;28;20229;-61
2022/09/23 08:04:36;;;;;;;2.47;1.60;;;21.60;73.00;;;;;;5053175;28;20673;-61
2022/09/23 08:07:06;;;;;;;1.55;1.42;;;21.10;74.70;;;;;;5053283;28;20221;-60
2022/09/23 08:09:38;;;;;;;3.08;1.98;;;20.60;76.30;;;;;;5053296;28;20279;-61
2022/09/23 08:12:05;;;;;;;2.03;1.50;;;20.10;78.10;;;;;;5052075;28;20257;-61
2022/09/23 08:14:32;;;;;;;2.45;1.65;;;19.70;79.90;;;;;;5052837;28;20198;-61
2022/09/23 08:16:59;;;;;;;2.28;1.50;;;19.40;81.60;;;;;;5052638;28;20205;-61
2022/09/23 08:19:26;;;;;;;2.15;1.55;;;19.10;82.30;;;;;;5052886;28;20244;-61
2022/09/23 08:21:53;;;;;;;3.17;1.92;;;19.00;83.30;;;;;;5052060;28;20226;-61
2022/09/23 08:24:22;;;;;;;1.75;1.60;;;19.00;84.10;;;;;;5052593;28;20359;-61
2022/09/23 08:26:50;;;;;;;2.13;1.70;;;19.00;85.00;;;;;;5053359;28;20202;-61
2022/09/23 08:29:18;;;;;;;2.28;1.67;;;19.10;85.30;;;;;;5053191;28;20289;-60
2022/09/23 08:31:46;;;;;;;1.70;1.60;;;19.20;84.80;;;;;;5052292;28;20221;-61
2022/09/23 08:34:13;;;;;;;2.00;1.80;;;19.30;84.60;;;;;;5052932;28;20594;-61
2022/09/23 08:36:40;;;;;;;3.40;1.60;;;19.20;85.70;;;;;;5052752;28;20227;-61
2022/09/23 08:39:06;;;;;;;4.05;1.90;;;19.20;86.30;;;;;;5052392;28;20201;-61
2022/09/23 08:41:43;;;;;;;2.28;1.60;;;19.10;86.60;;;;;;5052084;28;20323;-61
2022/09/23 08:44:16;;;;;;;2.10;1.80;;;19.00;87.40;;;;;;5052463;28;20216;-60
2022/09/23 08:46:48;;;;;;;2.75;1.60;;;18.80;88.20;;;;;;5052276;28;20224;-61
2022/09/23 08:49:33;;;;;;;1.77;1.67;;;18.80;89.20;;;;;;5052655;28;20267;-60
2022/09/23 08:52:07;;;;;;;3.25;1.63;;;19.00;89.00;;;;;;5051845;28;20226;-60
2022/09/23 08:54:33;;;;;;;3.83;1.98;;;19.10;88.80;;;;;;5052002;28;20767;-61
2022/09/23 08:57:04;;;;;;;2.30;2.00;;;19.20;88.90;;;;;;5052216;28;20212;-61
2022/09/23 08:59:38;;;;;;;2.35;1.80;;;19.40;89.30;;;;;;5052516;28;20673;-61
2022/09/23 09:02:11;;;;;;;1.70;1.60;;;19.30;89.10;;;;;;5051644;28;20237;-61
2022/09/23 09:04:43;;;;;;;1.98;1.40;;;19.30;90.00;;;;;;5052090;28;20205;-61
2022/09/23 09:07:14;;;;;;;1.80;1.50;;;19.40;90.00;;;;;;5052591;28;20210;-61
2022/09/23 09:09:46;;;;;;;1.60;1.50;;;19.70;89.70;;;;;;5052074;28;20214;-64
2022/09/23 09:12:18;;;;;;;1.73;1.50;;;19.90;89.10;;;;;;5051502;28;20279;-60
2022/09/23 09:14:54;;;;;;;6.18;1.70;;;20.00;89.00;;;;;;5051951;28;20205;-60
2022/09/23 09:17:29;;;;;;;2.25;1.63;;;20.00;88.40;;;;;;5052309;28;20557;-60
2022/09/23 09:20:00;;;;;;;3.22;1.42;;;20.00;87.90;;;;;;5052174;28;20565;-61
2022/09/23 09:22:46;;;;;;;2.70;1.70;;;20.00;88.60;;;;;;5052369;28;20214;-61
2022/09/23 09:25:22;;;;;;;2.58;1.52;;;19.90;88.20;;;;;;5052550;28;20577;-61
2022/09/23 09:27:52;;;;;;;2.17;1.70;;;19.80;89.10;;;;;;5052237;28;20220;-59
2022/09/23 09:30:23;;;;;;;1.67;1.45;;;19.70;89.70;;;;;;5051710;28;20684;-60
2022/09/23 09:32:57;;;;;;;3.35;1.60;;;19.70;89.80;;;;;;5052839;28;20213;-60
2022/09/23 09:35:33;;;;;;;1.95;1.48;;;19.80;89.50;;;;;;5055911;28;20214;-60
2022/09/23 09:38:00;;;;;;;2.65;2.00;;;19.90;89.70;;;;;;5056358;28;20216;-60
2022/09/23 09:40:27;;;;;;;2.60;1.80;;;20.00;89.40;;;;;;5055704;28;20249;-59
2022/09/23 09:42:55;;;;;;;3.17;1.92;;;20.10;89.20;;;;;;5056299;28;20300;-60
2022/09/23 09:45:51;;;;;;;4.45;1.70;;;20.10;89.10;;;;;;5056262;28;20205;-60
2022/09/23 09:48:23;;;;;;;4.32;1.90;;;20.10;89.70;;;;;;5056813;28;20202;-60
2022/09/23 09:50:51;;;;;;;2.42;1.92;;;20.30;89.50;;;;;;5056004;28;20229;-60
2022/09/23 09:53:24;;;;;;;4.53;1.73;;;20.40;88.60;;;;;;5056654;28;20227;-61
2022/09/23 09:56:03;;;;;;;14.70;8.88;;;20.40;87.90;;;;;;5055767;28;20264;-61
2022/09/23 09:58:42;;;;;;;5.18;2.83;;;20.40;86.90;;;;;;5056074;28;20205;-61
2022/09/23 10:01:17;;;;;;;1.70;1.40;;;20.60;86.90;;;;;;5054684;28;20236;-61
2022/09/23 10:03:45;;;;;;;2.22;1.45;;;20.70;85.40;;;;;;5055295;28;20251;-61
2022/09/23 10:06:18;;;;;;;5.03;1.52;;;20.80;84.60;;;;;;5055120;28;20206;-61
2022/09/23 10:08:58;;;;;;;3.28;1.52;;;20.80;85.60;;;;;;5055017;28;20595;-60
2022/09/23 10:11:25;;;;;;;3.55;1.65;;;20.70;86.30;;;;;;5054518;28;20713;-60
2022/09/23 10:14:06;;;;;;;1.75;1.55;;;20.40;86.90;;;;;;5056026;28;20244;-60
2022/09/23 10:16:34;;;;;;;5.43;1.80;;;20.20;87.70;;;;;;5057367;28;20205;-60
2022/09/23 10:19:02;;;;;;;3.88;1.80;;;20.00;88.20;;;;;;5055956;28;20259;-60
2022/09/23 10:21:34;;;;;;;5.22;1.88;;;19.90;88.70;;;;;;5055398;28;20229;-61
2022/09/23 10:24:04;;;;;;;2.13;1.60;;;19.90;90.00;;;;;;5055504;28;20274;-60
2022/09/23 10:26:33;;;;;;;4.85;1.83;;;20.00;89.80;;;;;;5055340;28;20206;-61
2022/09/23 10:29:04;;;;;;;5.60;2.00;;;20.20;90.00;;;;;;5055137;28;20209;-61
2022/09/23 10:31:32;;;;;;;3.78;1.73;;;20.40;89.70;;;;;;5054250;28;20731;-60
2022/09/23 10:34:01;;;;;;;3.63;2.20;;;20.60;89.40;;;;;;5054980;28;20208;-60
2022/09/23 10:36:29;;;;;;;4.78;2.17;;;20.70;88.90;;;;;;5054748;28;20700;-60
2022/09/23 10:46:37;;;;;;;4.57;1.90;;;20.90;87.40;;;;;;5054837;28;20216;-61
2022/09/23 10:47:50;;;;;;;5.57;1.67;;;21.30;84.20;;;;;;5054947;28;20578;-61
2022/09/23 10:50:28;;;;;;;3.17;1.92;;;21.30;83.00;;;;;;5053882;28;20211;-60
2022/09/23 10:53:09;;;;;;;3.40;1.73;;;21.10;83.40;;;;;;5054580;28;20210;-61
2022/09/23 10:55:57;;;;;;;6.75;2.85;;;21.10;83.60;;;;;;5054175;28;20209;-61
2022/09/23 10:59:03;;;;;;;2.72;1.55;;;21.10;85.30;;;;;;5054859;28;20201;-68
2022/09/23 11:01:40;;;;;;;5.32;1.70;;;21.10;85.40;;;;;;5053234;28;20225;-61
2022/09/23 11:04:25;;;;;;;4.20;1.70;;;21.20;85.00;;;;;;5054047;28;20205;-60
2022/09/23 11:07:06;;;;;;;3.13;1.60;;;21.10;85.10;;;;;;5053892;28;20204;-59
2022/09/23 11:09:44;;;;;;;3.25;1.60;;;21.00;85.30;;;;;;5053814;28;20210;-60
2022/09/23 11:12:26;;;;;;;3.28;1.60;;;21.00;85.30;;;;;;5053254;28;20715;-60
2022/09/23 11:15:09;;;;;;;3.58;1.75;;;20.80;85.90;;;;;;5054181;28;20205;-59
2022/09/23 11:18:01;;;;;;;4.50;1.90;;;20.90;85.60;;;;;;5053828;28;20714;-60
2022/09/23 11:20:39;;;;;;;3.47;1.70;;;20.90;86.50;;;;;;5053422;28;20230;-61
2022/09/23 11:23:43;;;;;;;3.88;1.77;;;21.00;86.80;;;;;;5053436;28;20209;-61
2022/09/23 11:26:23;;;;;;;2.75;1.70;;;21.20;85.20;;;;;;5053525;28;20201;-60
2022/09/23 11:29:12;;;;;;;6.78;1.67;;;21.30;85.10;;;;;;5053565;28;20209;-61
2022/09/23 11:31:50;;;;;;;4.18;2.03;;;21.50;84.80;;;;;;5053106;28;20228;-61
2022/09/23 11:34:42;;;;;;;4.15;1.92;;;21.60;83.70;;;;;;5053263;28;20218;-60
2022/09/23 11:37:13;;;;;;;3.13;2.05;;;21.80;83.90;;;;;;5053218;28;20574;-60
2022/09/23 11:39:45;;;;;;;2.17;1.52;;;21.80;83.10;;;;;;5053194;28;20209;-60
2022/09/23 11:42:17;;;;;;;6.53;2.10;;;21.80;82.80;;;;;;5052642;28;20240;-61
2022/09/23 11:44:50;;;;;;;3.80;1.90;;;21.90;81.40;;;;;;5053363;28;20208;-60
2022/09/23 11:47:22;;;;;;;8.75;2.47;;;21.80;82.00;;;;;;5053727;28;20696;-62
2022/09/23 11:49:55;;;;;;;4.82;2.58;;;21.70;82.90;;;;;;5053281;28;20205;-59
2022/09/23 11:52:27;;;;;;;3.75;1.80;;;21.60;82.00;;;;;;5053460;28;20225;-59
2022/09/23 11:54:58;;;;;;;4.57;1.98;;;21.70;82.60;;;;;;5053225;28;20216;-60
2022/09/23 11:57:31;;;;;;;2.47;2.00;;;21.70;81.60;;;;;;5052976;28;20209;-59
2022/09/23 12:00:02;;;;;;;3.03;1.98;;;21.70;82.00;;;;;;5053005;28;20213;-59
2022/09/23 12:02:36;;;;;;;3.95;1.80;;;21.70;82.60;;;;;;5052729;28;20225;-59
2022/09/23 12:05:09;;;;;;;6.60;2.42;;;21.70;82.10;;;;;;5053903;28;20205;-61
2022/09/23 12:07:46;;;;;;;4.97;2.28;;;21.70;81.80;;;;;;5052921;28;20205;-61
2022/09/23 12:10:15;;;;;;;4.45;1.83;;;21.60;82.00;;;;;;5053166;28;20209;-60
2022/09/23 12:12:51;;;;;;;5.15;2.28;;;21.30;83.30;;;;;;5052374;28;20684;-59
2022/09/23 12:15:30;;;;;;;3.92;1.92;;;21.20;84.10;;;;;;5052681;28;20212;-60
2022/09/23 12:18:10;;;;;;;4.43;2.17;;;21.20;84.60;;;;;;5052488;28;20209;-60
2022/09/23 12:21:07;;;;;;;5.07;2.40;;;21.30;84.20;;;;;;5052232;28;20716;-60
2022/09/23 12:23:51;;;;;;;6.53;2.15;;;21.30;83.60;;;;;;5052667;28;20229;-60
2022/09/23 12:26:22;;;;;;;3.08;2.17;;;21.40;83.80;;;;;;5052595;28;20209;-60
2022/09/23 12:28:52;;;;;;;7.55;2.45;;;21.40;83.40;;;;;;5052838;28;20212;-60
2022/09/23 12:31:29;;;;;;;7.85;2.55;;;21.50;83.60;;;;;;5052224;28;20230;-60
2022/09/23 12:33:58;;;;;;;3.35;1.98;;;21.50;84.10;;;;;;5052419;28;20207;-60
2022/09/23 12:36:33;;;;;;;2.85;2.40;;;21.50;84.60;;;;;;5052702;28;20347;-60
2022/09/23 12:39:03;;;;;;;2.92;2.20;;;21.50;84.90;;;;;;5052913;28;20205;-60
2022/09/23 12:41:35;;;;;;;3.00;2.38;;;21.50;83.70;;;;;;5052214;28;20276;-59
2022/09/23 12:44:15;;;;;;;4.82;2.40;;;21.50;84.40;;;;;;5052735;28;20267;-59
2022/09/23 12:46:43;;;;;;;5.20;2.53;;;21.50;84.90;;;;;;5052604;28;20216;-62
2022/09/23 12:49:24;;;;;;;3.90;2.40;;;21.50;83.80;;;;;;5052798;28;20229;-61
2022/09/23 12:54:54;;;;;;;4.30;2.10;;;21.60;84.30;;;;;;5090701;28;20595;-60
2022/09/23 12:57:40;;;;;;;2.97;2.00;;;21.90;82.50;;;;;;5090410;28;20385;-61
2022/09/23 13:00:21;;;;;;;2.97;2.10;;;22.00;81.50;;;;;;5090783;28;20208;-61
2022/09/23 13:08:36;;;;;;;2.72;1.80;;;21.70;81.10;;;;;;5041202;28;20216;-58
2022/09/23 13:11:08;;;;;;;3.60;1.98;;;21.60;81.50;;;;;;5048258;28;20255;-59
2022/09/23 13:13:37;;;;;;;4.10;2.05;;;21.50;82.20;;;;;;5048576;28;20663;-58
2022/09/23 13:16:13;;;;;;;3.92;2.30;;;21.50;82.80;;;;;;5048642;28;20272;-57
2022/09/23 13:18:58;;;;;;;3.83;2.95;;;21.40;83.50;;;;;;5048834;28;20309;-57
2022/09/23 13:22:06;;;;;;;6.72;2.20;;;21.40;83.50;;;;;;5048052;28;20213;-58
2022/09/23 13:24:42;;;;;;;6.10;1.95;;;21.40;84.10;;;;;;5048482;28;20608;-58
2022/09/23 13:27:18;;;;;;;3.97;2.83;;;21.40;83.30;;;;;;5048361;28;20229;-57
2022/09/23 13:29:50;;;;;;;4.03;2.50;;;21.30;83.30;;;;;;5048613;28;20213;-58